PWSweather.com
Personal Weather Stations
Station Observations
WD4JKH
Forsyth, GA 31029

Forsyth, GA 31029

Lat: 33.033225, Lon: -83.927995

Elevation: 709

Station Type: Davis Vantage VUE

High Low Average
Temperature 50.9°F10.5°C 29.7°F-1.3°C 40.3°F4.6°C
Dew Point 39.8°F4.3°C 12.3°F-10.9°C 25.8°F-3.4°C
Winds 12.3 mph 19.8 kmh 1.6 mph 2.6 kmh 5.0 mph E8.0 kmh E
Wind Gusts 19.0 mph30.6 kmh 5.0 mph8.0 kmh 12.0 mph19.3 kmh
Humidity 75% 45% 56%
Pressure 30.62 in1036.9 mb 30.42 in1030.1 mb -
Precipitation 0.00 in0.0 mm - -
Hour Temp Dew Point Humidity Winds Wind Gusts Pressure Precip Precip Rate Daily Precip Total
12:02 AM 35.0°F1.7°C 20.0°F-6.7°C 54% 1.3 mph E2.1 kmh E 5.0 mph8.0 kmh 30.48 in1032.2 mb 0.00 in0.0 mm 0.00 in0.0 mm 0.00 in0.0 mm
12:07 AM 34.9°F1.6°C 19.9°F-6.7°C 54% 2.1 mph E3.4 kmh E 5.0 mph8.0 kmh 30.49 in1032.5 mb 0.00 in0.0 mm 0.00 in0.0 mm 0.00 in0.0 mm
12:12 AM 34.9°F1.6°C 19.5°F-6.9°C 53% 1.9 mph E3.1 kmh E 5.0 mph8.0 kmh 30.49 in1032.5 mb 0.00 in0.0 mm 0.00 in0.0 mm 0.00 in0.0 mm
12:17 AM 34.7°F1.5°C 19.3°F-7.1°C 53% 1.9 mph E3.1 kmh E 5.0 mph8.0 kmh 30.49 in1032.5 mb 0.00 in0.0 mm 0.00 in0.0 mm 0.00 in0.0 mm
12:22 AM 34.7°F1.5°C 19.3°F-7.1°C 53% 2.8 mph E4.5 kmh E 7.0 mph11.3 kmh 30.49 in1032.5 mb 0.00 in0.0 mm 0.00 in0.0 mm 0.00 in0.0 mm
12:27 AM 34.7°F1.5°C 18.9°F-7.3°C 52% 2.8 mph E4.5 kmh E 7.0 mph11.3 kmh 30.49 in1032.5 mb 0.00 in0.0 mm 0.00 in0.0 mm 0.00 in0.0 mm
12:32 AM 34.6°F1.4°C 18.7°F-7.4°C 52% 2.8 mph E4.5 kmh E 7.0 mph11.3 kmh 30.49 in1032.5 mb 0.00 in0.0 mm 0.00 in0.0 mm 0.00 in0.0 mm
12:37 AM 34.5°F1.4°C 18.6°F-7.4°C 52% 2.5 mph E4.0 kmh E 7.0 mph11.3 kmh 30.49 in1032.5 mb 0.00 in0.0 mm 0.00 in0.0 mm 0.00 in0.0 mm
12:42 AM 34.5°F1.4°C 18.2°F-7.7°C 51% 2.1 mph E3.4 kmh E 6.0 mph9.7 kmh 30.49 in1032.5 mb 0.00 in0.0 mm 0.00 in0.0 mm 0.00 in0.0 mm
12:47 AM 34.4°F1.3°C 18.1°F-7.7°C 51% 2.6 mph E4.2 kmh E 6.0 mph9.7 kmh 30.49 in1032.5 mb 0.00 in0.0 mm 0.00 in0.0 mm 0.00 in0.0 mm
12:52 AM 34.3°F1.3°C 18.0°F-7.8°C 51% 2.2 mph E3.5 kmh E 6.0 mph9.7 kmh 30.49 in1032.5 mb 0.00 in0.0 mm 0.00 in0.0 mm 0.00 in0.0 mm
12:57 AM 34.3°F1.3°C 18.0°F-7.8°C 51% 2.6 mph E4.2 kmh E 6.0 mph9.7 kmh 30.49 in1032.5 mb 0.00 in0.0 mm 0.00 in0.0 mm 0.00 in0.0 mm
01:02 AM 34.3°F1.3°C 17.6°F-8.0°C 50% 3.8 mph E6.1 kmh E 6.0 mph9.7 kmh 30.49 in1032.5 mb 0.00 in0.0 mm 0.00 in0.0 mm 0.00 in0.0 mm
01:07 AM 34.2°F1.2°C 17.9°F-7.8°C 51% 2.3 mph E3.7 kmh E 6.0 mph9.7 kmh 30.49 in1032.5 mb 0.00 in0.0 mm 0.00 in0.0 mm 0.00 in0.0 mm
01:12 AM 34.1°F1.2°C 17.3°F-8.2°C 50% 3.4 mph E5.5 kmh E 6.0 mph9.7 kmh 30.50 in1032.8 mb 0.00 in0.0 mm 0.00 in0.0 mm 0.00 in0.0 mm
01:16 AM 34.1°F1.2°C 17.3°F-8.2°C 50% 2.3 mph E3.7 kmh E 6.0 mph9.7 kmh 30.50 in1032.8 mb 0.00 in0.0 mm 0.00 in0.0 mm 0.00 in0.0 mm
01:21 AM 34.0°F1.1°C 17.2°F-8.2°C 50% 2.6 mph E4.2 kmh E 7.0 mph11.3 kmh 30.50 in1032.8 mb 0.00 in0.0 mm 0.00 in0.0 mm 0.00 in0.0 mm
01:26 AM 34.0°F1.1°C 17.7°F-7.9°C 51% 2.1 mph E3.4 kmh E 7.0 mph11.3 kmh 30.50 in1032.8 mb 0.00 in0.0 mm 0.00 in0.0 mm 0.00 in0.0 mm
01:31 AM 33.9°F1.1°C 17.6°F-8.0°C 51% 3.1 mph E5.0 kmh E 7.0 mph11.3 kmh 30.50 in1032.8 mb 0.00 in0.0 mm 0.00 in0.0 mm 0.00 in0.0 mm
01:36 AM 33.9°F1.1°C 17.6°F-8.0°C 51% 2.8 mph E4.5 kmh E 7.0 mph11.3 kmh 30.50 in1032.8 mb 0.00 in0.0 mm 0.00 in0.0 mm 0.00 in0.0 mm
01:41 AM 33.9°F1.1°C 17.6°F-8.0°C 51% 2.5 mph E4.0 kmh E 7.0 mph11.3 kmh 30.50 in1032.8 mb 0.00 in0.0 mm 0.00 in0.0 mm 0.00 in0.0 mm
01:46 AM 33.8°F1.0°C 17.6°F-8.0°C 51% 3.2 mph E5.1 kmh E 7.0 mph11.3 kmh 30.50 in1032.8 mb 0.00 in0.0 mm 0.00 in0.0 mm 0.00 in0.0 mm
01:51 AM 33.7°F0.9°C 17.4°F-8.1°C 51% 3.9 mph E6.3 kmh E 9.0 mph14.5 kmh 30.50 in1032.8 mb 0.00 in0.0 mm 0.00 in0.0 mm 0.00 in0.0 mm
01:56 AM 33.7°F0.9°C 17.4°F-8.1°C 51% 2.7 mph E4.3 kmh E 10.0 mph16.1 kmh 30.50 in1032.8 mb 0.00 in0.0 mm 0.00 in0.0 mm 0.00 in0.0 mm
02:01 AM 33.6°F0.9°C 17.3°F-8.2°C 51% 2.4 mph E3.9 kmh E 10.0 mph16.1 kmh 30.50 in1032.8 mb 0.00 in0.0 mm 0.00 in0.0 mm 0.00 in0.0 mm
02:06 AM 33.5°F0.8°C 16.8°F-8.4°C 50% 3.2 mph E5.1 kmh E 10.0 mph16.1 kmh 30.50 in1032.8 mb 0.00 in0.0 mm 0.00 in0.0 mm 0.00 in0.0 mm
02:11 AM 33.4°F0.8°C 16.7°F-8.5°C 50% 2.7 mph E4.3 kmh E 9.0 mph14.5 kmh 30.50 in1032.8 mb 0.00 in0.0 mm 0.00 in0.0 mm 0.00 in0.0 mm
02:16 AM 33.3°F0.7°C 17.1°F-8.3°C 51% 1.9 mph E3.1 kmh E 9.0 mph14.5 kmh 30.50 in1032.8 mb 0.00 in0.0 mm 0.00 in0.0 mm 0.00 in0.0 mm
02:21 AM 33.2°F0.7°C 17.0°F-8.3°C 51% 2.9 mph E4.7 kmh E 9.0 mph14.5 kmh 30.51 in1033.2 mb 0.00 in0.0 mm 0.00 in0.0 mm 0.00 in0.0 mm
02:26 AM 33.1°F0.6°C 16.9°F-8.4°C 51% 2.2 mph E3.5 kmh E 6.0 mph9.7 kmh 30.51 in1033.2 mb 0.00 in0.0 mm 0.00 in0.0 mm 0.00 in0.0 mm
02:31 AM 32.9°F0.5°C 16.7°F-8.5°C 51% 2.1 mph ESE3.4 kmh ESE 6.0 mph9.7 kmh 30.51 in1033.2 mb 0.00 in0.0 mm 0.00 in0.0 mm 0.00 in0.0 mm
02:36 AM 32.9°F0.5°C 16.7°F-8.5°C 51% 1.6 mph E2.6 kmh E 6.0 mph9.7 kmh 30.51 in1033.2 mb 0.00 in0.0 mm 0.00 in0.0 mm 0.00 in0.0 mm
02:41 AM 32.8°F0.4°C 17.1°F-8.3°C 52% 2.0 mph E3.2 kmh E 6.0 mph9.7 kmh 30.51 in1033.2 mb 0.00 in0.0 mm 0.00 in0.0 mm 0.00 in0.0 mm
02:46 AM 32.7°F0.4°C 17.0°F-8.3°C 52% 2.4 mph E3.9 kmh E 5.0 mph8.0 kmh 30.52 in1033.5 mb 0.00 in0.0 mm 0.00 in0.0 mm 0.00 in0.0 mm
02:51 AM 32.7°F0.4°C 17.0°F-8.3°C 52% 2.7 mph E4.3 kmh E 7.0 mph11.3 kmh 30.52 in1033.5 mb 0.00 in0.0 mm 0.00 in0.0 mm 0.00 in0.0 mm
02:56 AM 32.5°F0.3°C 16.8°F-8.4°C 52% 2.5 mph E4.0 kmh E 7.0 mph11.3 kmh 30.52 in1033.5 mb 0.00 in0.0 mm 0.00 in0.0 mm 0.00 in0.0 mm
03:01 AM 32.4°F0.2°C 17.2°F-8.2°C 53% 3.3 mph E5.3 kmh E 7.0 mph11.3 kmh 30.52 in1033.5 mb 0.00 in0.0 mm 0.00 in0.0 mm 0.00 in0.0 mm
03:06 AM 32.4°F0.2°C 16.7°F-8.5°C 52% 4.0 mph E6.4 kmh E 7.0 mph11.3 kmh 30.52 in1033.5 mb 0.00 in0.0 mm 0.00 in0.0 mm 0.00 in0.0 mm
03:11 AM 32.3°F0.2°C 17.0°F-8.3°C 53% 3.6 mph E5.8 kmh E 7.0 mph11.3 kmh 30.52 in1033.5 mb 0.00 in0.0 mm 0.00 in0.0 mm 0.00 in0.0 mm
03:16 AM 32.3°F0.2°C 17.0°F-8.3°C 53% 3.0 mph E4.8 kmh E 7.0 mph11.3 kmh 30.52 in1033.5 mb 0.00 in0.0 mm 0.00 in0.0 mm 0.00 in0.0 mm
03:21 AM 32.2°F0.1°C 17.0°F-8.3°C 53% 2.0 mph E3.2 kmh E 7.0 mph11.3 kmh 30.53 in1033.9 mb 0.00 in0.0 mm 0.00 in0.0 mm 0.00 in0.0 mm
03:26 AM 32.1°F0.1°C 16.9°F-8.4°C 53% 2.6 mph E4.2 kmh E 7.0 mph11.3 kmh 30.53 in1033.9 mb 0.00 in0.0 mm 0.00 in0.0 mm 0.00 in0.0 mm
03:31 AM 32.0°F0.0°C 17.2°F-8.2°C 54% 2.6 mph E4.2 kmh E 6.0 mph9.7 kmh 30.53 in1033.9 mb 0.00 in0.0 mm 0.00 in0.0 mm 0.00 in0.0 mm
03:36 AM 32.0°F0.0°C 17.2°F-8.2°C 54% 2.6 mph E4.2 kmh E 5.0 mph8.0 kmh 30.53 in1033.9 mb 0.00 in0.0 mm 0.00 in0.0 mm 0.00 in0.0 mm
03:41 AM 31.9°F-0.1°C 17.1°F-8.3°C 54% 3.1 mph E5.0 kmh E 5.0 mph8.0 kmh 30.53 in1033.9 mb 0.00 in0.0 mm 0.00 in0.0 mm 0.00 in0.0 mm
03:46 AM 31.9°F-0.1°C 17.5°F-8.1°C 55% 3.3 mph E5.3 kmh E 6.0 mph9.7 kmh 30.53 in1033.9 mb 0.00 in0.0 mm 0.00 in0.0 mm 0.00 in0.0 mm
03:51 AM 31.8°F-0.1°C 17.5°F-8.1°C 55% 1.8 mph E2.9 kmh E 6.0 mph9.7 kmh 30.53 in1033.9 mb 0.00 in0.0 mm 0.00 in0.0 mm 0.00 in0.0 mm
03:56 AM 31.8°F-0.1°C 17.5°F-8.1°C 55% 2.7 mph E4.3 kmh E 6.0 mph9.7 kmh 30.53 in1033.9 mb 0.00 in0.0 mm 0.00 in0.0 mm 0.00 in0.0 mm
04:01 AM 31.8°F-0.1°C 17.5°F-8.1°C 55% 2.6 mph E4.2 kmh E 6.0 mph9.7 kmh 30.53 in1033.9 mb 0.00 in0.0 mm 0.00 in0.0 mm 0.00 in0.0 mm
04:06 AM 31.7°F-0.2°C 17.4°F-8.1°C 55% 2.4 mph E3.9 kmh E 7.0 mph11.3 kmh 30.53 in1033.9 mb 0.00 in0.0 mm 0.00 in0.0 mm 0.00 in0.0 mm
04:11 AM 31.7°F-0.2°C 17.4°F-8.1°C 55% 2.8 mph E4.5 kmh E 7.0 mph11.3 kmh 30.54 in1034.2 mb 0.00 in0.0 mm 0.00 in0.0 mm 0.00 in0.0 mm
04:16 AM 31.7°F-0.2°C 17.4°F-8.1°C 55% 2.6 mph E4.2 kmh E 7.0 mph11.3 kmh 30.54 in1034.2 mb 0.00 in0.0 mm 0.00 in0.0 mm 0.00 in0.0 mm
04:21 AM 31.6°F-0.2°C 17.3°F-8.2°C 55% 2.4 mph E3.9 kmh E 6.0 mph9.7 kmh 30.54 in1034.2 mb 0.00 in0.0 mm 0.00 in0.0 mm 0.00 in0.0 mm
04:26 AM 31.5°F-0.3°C 17.6°F-8.0°C 56% 2.2 mph E3.5 kmh E 6.0 mph9.7 kmh 30.54 in1034.2 mb 0.00 in0.0 mm 0.00 in0.0 mm 0.00 in0.0 mm
04:31 AM 31.5°F-0.3°C 17.6°F-8.0°C 56% 2.1 mph E3.4 kmh E 6.0 mph9.7 kmh 30.54 in1034.2 mb 0.00 in0.0 mm 0.00 in0.0 mm 0.00 in0.0 mm
04:36 AM 31.4°F-0.3°C 17.5°F-8.1°C 56% 2.2 mph E3.5 kmh E 5.0 mph8.0 kmh 30.54 in1034.2 mb 0.00 in0.0 mm 0.00 in0.0 mm 0.00 in0.0 mm
04:41 AM 31.3°F-0.4°C 17.4°F-8.1°C 56% 2.9 mph E4.7 kmh E 6.0 mph9.7 kmh 30.55 in1034.5 mb 0.00 in0.0 mm 0.00 in0.0 mm 0.00 in0.0 mm
04:46 AM 31.3°F-0.4°C 17.4°F-8.1°C 56% 2.5 mph E4.0 kmh E 6.0 mph9.7 kmh 30.55 in1034.5 mb 0.00 in0.0 mm 0.00 in0.0 mm 0.00 in0.0 mm
04:51 AM 31.2°F-0.4°C 17.7°F-7.9°C 57% 2.9 mph E4.7 kmh E 6.0 mph9.7 kmh 30.55 in1034.5 mb 0.00 in0.0 mm 0.00 in0.0 mm 0.00 in0.0 mm
04:56 AM 31.1°F-0.5°C 17.7°F-7.9°C 57% 2.6 mph E4.2 kmh E 6.0 mph9.7 kmh 30.55 in1034.5 mb 0.00 in0.0 mm 0.00 in0.0 mm 0.00 in0.0 mm
05:01 AM 31.1°F-0.5°C 17.7°F-7.9°C 57% 2.5 mph E4.0 kmh E 6.0 mph9.7 kmh 30.55 in1034.5 mb 0.00 in0.0 mm 0.00 in0.0 mm 0.00 in0.0 mm
05:06 AM 30.9°F-0.6°C 17.4°F-8.1°C 57% 3.3 mph E5.3 kmh E 7.0 mph11.3 kmh 30.55 in1034.5 mb 0.00 in0.0 mm 0.00 in0.0 mm 0.00 in0.0 mm
05:11 AM 30.9°F-0.6°C 17.9°F-7.8°C 58% 2.4 mph E3.9 kmh E 7.0 mph11.3 kmh 30.55 in1034.5 mb 0.00 in0.0 mm 0.00 in0.0 mm 0.00 in0.0 mm
05:16 AM 30.8°F-0.7°C 17.8°F-7.9°C 58% 2.4 mph E3.9 kmh E 7.0 mph11.3 kmh 30.55 in1034.5 mb 0.00 in0.0 mm 0.00 in0.0 mm 0.00 in0.0 mm
05:21 AM 30.8°F-0.7°C 17.8°F-7.9°C 58% 2.8 mph E4.5 kmh E 7.0 mph11.3 kmh 30.55 in1034.5 mb 0.00 in0.0 mm 0.00 in0.0 mm 0.00 in0.0 mm
05:26 AM 30.7°F-0.7°C 17.7°F-7.9°C 58% 2.8 mph E4.5 kmh E 6.0 mph9.7 kmh 30.54 in1034.2 mb 0.00 in0.0 mm 0.00 in0.0 mm 0.00 in0.0 mm
05:31 AM 30.7°F-0.7°C 17.7°F-7.9°C 58% 5.1 mph E8.2 kmh E 8.0 mph12.9 kmh 30.54 in1034.2 mb 0.00 in0.0 mm 0.00 in0.0 mm 0.00 in0.0 mm
05:36 AM 30.8°F-0.7°C 17.7°F-7.9°C 58% 2.9 mph E4.7 kmh E 9.0 mph14.5 kmh 30.54 in1034.2 mb 0.00 in0.0 mm 0.00 in0.0 mm 0.00 in0.0 mm
05:41 AM 30.8°F-0.7°C 17.7°F-7.9°C 58% 4.1 mph E6.6 kmh E 9.0 mph14.5 kmh 30.54 in1034.2 mb 0.00 in0.0 mm 0.00 in0.0 mm 0.00 in0.0 mm
05:46 AM 30.7°F-0.7°C 17.7°F-7.9°C 58% 6.2 mph E10.0 kmh E 10.0 mph16.1 kmh 30.54 in1034.2 mb 0.00 in0.0 mm 0.00 in0.0 mm 0.00 in0.0 mm
05:51 AM 30.7°F-0.7°C 17.7°F-7.9°C 58% 5.0 mph ENE8.0 kmh ENE 11.0 mph17.7 kmh 30.54 in1034.2 mb 0.00 in0.0 mm 0.00 in0.0 mm 0.00 in0.0 mm
05:56 AM 30.6°F-0.8°C 17.6°F-8.0°C 58% 3.5 mph E5.6 kmh E 11.0 mph17.7 kmh 30.54 in1034.2 mb 0.00 in0.0 mm 0.00 in0.0 mm 0.00 in0.0 mm
06:01 AM 30.7°F-0.7°C 17.3°F-8.2°C 57% 4.9 mph E7.9 kmh E 11.0 mph17.7 kmh 30.55 in1034.5 mb 0.00 in0.0 mm 0.00 in0.0 mm 0.00 in0.0 mm
06:06 AM 30.7°F-0.7°C 17.7°F-7.9°C 58% 4.6 mph E7.4 kmh E 10.0 mph16.1 kmh 30.55 in1034.5 mb 0.00 in0.0 mm 0.00 in0.0 mm 0.00 in0.0 mm
06:11 AM 30.7°F-0.7°C 17.3°F-8.2°C 57% 4.9 mph E7.9 kmh E 10.0 mph16.1 kmh 30.55 in1034.5 mb 0.00 in0.0 mm 0.00 in0.0 mm 0.00 in0.0 mm
06:15 AM 30.8°F-0.7°C 17.4°F-8.1°C 57% 5.8 mph E9.3 kmh E 10.0 mph16.1 kmh 30.55 in1034.5 mb 0.00 in0.0 mm 0.00 in0.0 mm 0.00 in0.0 mm
06:20 AM 30.8°F-0.7°C 17.4°F-8.1°C 57% 5.8 mph E9.3 kmh E 11.0 mph17.7 kmh 30.55 in1034.5 mb 0.00 in0.0 mm 0.00 in0.0 mm 0.00 in0.0 mm
06:25 AM 30.8°F-0.7°C 17.0°F-8.3°C 56% 6.3 mph E10.1 kmh E 12.0 mph19.3 kmh 30.55 in1034.5 mb 0.00 in0.0 mm 0.00 in0.0 mm 0.00 in0.0 mm
06:30 AM 30.8°F-0.7°C 17.0°F-8.3°C 56% 4.5 mph ENE7.2 kmh ENE 12.0 mph19.3 kmh 30.56 in1034.9 mb 0.00 in0.0 mm 0.00 in0.0 mm 0.00 in0.0 mm
06:35 AM 30.9°F-0.6°C 17.0°F-8.3°C 56% 5.1 mph ENE8.2 kmh ENE 12.0 mph19.3 kmh 30.56 in1034.9 mb 0.00 in0.0 mm 0.00 in0.0 mm 0.00 in0.0 mm
06:40 AM 30.9°F-0.6°C 17.0°F-8.3°C 56% 5.3 mph ENE8.5 kmh ENE 12.0 mph19.3 kmh 30.56 in1034.9 mb 0.00 in0.0 mm 0.00 in0.0 mm 0.00 in0.0 mm
06:45 AM 30.9°F-0.6°C 17.0°F-8.3°C 56% 6.4 mph E10.3 kmh E 12.0 mph19.3 kmh 30.55 in1034.5 mb 0.00 in0.0 mm 0.00 in0.0 mm 0.00 in0.0 mm
06:50 AM 30.8°F-0.7°C 17.0°F-8.3°C 56% 5.1 mph E8.2 kmh E 12.0 mph19.3 kmh 30.55 in1034.5 mb 0.00 in0.0 mm 0.00 in0.0 mm 0.00 in0.0 mm
06:55 AM 30.8°F-0.7°C 17.4°F-8.1°C 57% 5.1 mph ENE8.2 kmh ENE 12.0 mph19.3 kmh 30.55 in1034.5 mb 0.00 in0.0 mm 0.00 in0.0 mm 0.00 in0.0 mm
07:00 AM 30.7°F-0.7°C 17.3°F-8.2°C 57% 4.6 mph ENE7.4 kmh ENE 12.0 mph19.3 kmh 30.56 in1034.9 mb 0.00 in0.0 mm 0.00 in0.0 mm 0.00 in0.0 mm
07:05 AM 30.7°F-0.7°C 17.3°F-8.2°C 57% 2.6 mph ENE4.2 kmh ENE 11.0 mph17.7 kmh 30.56 in1034.9 mb 0.00 in0.0 mm 0.00 in0.0 mm 0.00 in0.0 mm
07:10 AM 30.6°F-0.8°C 17.2°F-8.2°C 57% 6.5 mph ENE10.5 kmh ENE 11.0 mph17.7 kmh 30.56 in1034.9 mb 0.00 in0.0 mm 0.00 in0.0 mm 0.00 in0.0 mm
07:15 AM 30.6°F-0.8°C 17.2°F-8.2°C 57% 6.1 mph ENE9.8 kmh ENE 11.0 mph17.7 kmh 30.56 in1034.9 mb 0.00 in0.0 mm 0.00 in0.0 mm 0.00 in0.0 mm
07:20 AM 30.6°F-0.8°C 16.8°F-8.4°C 56% 7.4 mph E11.9 kmh E 12.0 mph19.3 kmh 30.57 in1035.2 mb 0.00 in0.0 mm 0.00 in0.0 mm 0.00 in0.0 mm
07:25 AM 30.6°F-0.8°C 15.9°F-8.9°C 54% 8.2 mph E13.2 kmh E 14.0 mph22.5 kmh 30.57 in1035.2 mb 0.00 in0.0 mm 0.00 in0.0 mm 0.00 in0.0 mm
07:30 AM 30.7°F-0.7°C 15.6°F-9.1°C 53% 7.2 mph E11.6 kmh E 14.0 mph22.5 kmh 30.57 in1035.2 mb 0.00 in0.0 mm 0.00 in0.0 mm 0.00 in0.0 mm
07:35 AM 30.6°F-0.8°C 15.5°F-9.2°C 53% 7.9 mph ENE12.7 kmh ENE 14.0 mph22.5 kmh 30.57 in1035.2 mb 0.00 in0.0 mm 0.00 in0.0 mm 0.00 in0.0 mm
07:40 AM 30.6°F-0.8°C 15.9°F-8.9°C 54% 5.6 mph E9.0 kmh E 13.0 mph20.9 kmh 30.57 in1035.2 mb 0.00 in0.0 mm 0.00 in0.0 mm 0.00 in0.0 mm
07:45 AM 30.4°F-0.9°C 16.2°F-8.8°C 55% 5.2 mph ENE8.4 kmh ENE 11.0 mph17.7 kmh 30.57 in1035.2 mb 0.00 in0.0 mm 0.00 in0.0 mm 0.00 in0.0 mm
07:50 AM 30.3°F-0.9°C 16.5°F-8.6°C 56% 4.6 mph ENE7.4 kmh ENE 11.0 mph17.7 kmh 30.57 in1035.2 mb 0.00 in0.0 mm 0.00 in0.0 mm 0.00 in0.0 mm
07:55 AM 30.2°F-1.0°C 16.4°F-8.7°C 56% 3.8 mph ENE6.1 kmh ENE 10.0 mph16.1 kmh 30.58 in1035.6 mb 0.00 in0.0 mm 0.00 in0.0 mm 0.00 in0.0 mm
08:00 AM 30.1°F-1.1°C 15.9°F-8.9°C 55% 4.9 mph ENE7.9 kmh ENE 9.0 mph14.5 kmh 30.57 in1035.2 mb 0.00 in0.0 mm 0.00 in0.0 mm 0.00 in0.0 mm
08:05 AM 30.1°F-1.1°C 16.3°F-8.7°C 56% 3.3 mph ENE5.3 kmh ENE 9.0 mph14.5 kmh 30.58 in1035.6 mb 0.00 in0.0 mm 0.00 in0.0 mm 0.00 in0.0 mm
08:10 AM 29.9°F-1.2°C 16.1°F-8.8°C 56% 3.6 mph ENE5.8 kmh ENE 9.0 mph14.5 kmh 30.58 in1035.6 mb 0.00 in0.0 mm 0.00 in0.0 mm 0.00 in0.0 mm
08:15 AM 29.8°F-1.2°C 16.0°F-8.9°C 56% 2.5 mph ENE4.0 kmh ENE 9.0 mph14.5 kmh 30.58 in1035.6 mb 0.00 in0.0 mm 0.00 in0.0 mm 0.00 in0.0 mm
08:20 AM 29.7°F-1.3°C 15.9°F-8.9°C 56% 2.8 mph ENE4.5 kmh ENE 8.0 mph12.9 kmh 30.58 in1035.6 mb 0.00 in0.0 mm 0.00 in0.0 mm 0.00 in0.0 mm
08:25 AM 29.7°F-1.3°C 15.5°F-9.2°C 55% 3.3 mph ENE5.3 kmh ENE 8.0 mph12.9 kmh 30.59 in1035.9 mb 0.00 in0.0 mm 0.00 in0.0 mm 0.00 in0.0 mm
08:30 AM 29.7°F-1.3°C 15.5°F-9.2°C 55% 4.3 mph ENE6.9 kmh ENE 9.0 mph14.5 kmh 30.59 in1035.9 mb 0.00 in0.0 mm 0.00 in0.0 mm 0.00 in0.0 mm
08:35 AM 29.7°F-1.3°C 15.1°F-9.4°C 54% 4.1 mph E6.6 kmh E 10.0 mph16.1 kmh 30.59 in1035.9 mb 0.00 in0.0 mm 0.00 in0.0 mm 0.00 in0.0 mm
08:40 AM 29.8°F-1.2°C 14.3°F-9.8°C 52% 6.4 mph ENE10.3 kmh ENE 10.0 mph16.1 kmh 30.59 in1035.9 mb 0.00 in0.0 mm 0.00 in0.0 mm 0.00 in0.0 mm
08:45 AM 30.0°F-1.1°C 14.0°F-10.0°C 51% 5.6 mph ENE9.0 kmh ENE 10.0 mph16.1 kmh 30.59 in1035.9 mb 0.00 in0.0 mm 0.00 in0.0 mm 0.00 in0.0 mm
08:50 AM 30.2°F-1.0°C 13.7°F-10.2°C 50% 5.8 mph ENE9.3 kmh ENE 12.0 mph19.3 kmh 30.59 in1035.9 mb 0.00 in0.0 mm 0.00 in0.0 mm 0.00 in0.0 mm
08:55 AM 30.4°F-0.9°C 13.4°F-10.3°C 49% 6.7 mph ENE10.8 kmh ENE 14.0 mph22.5 kmh 30.60 in1036.2 mb 0.00 in0.0 mm 0.00 in0.0 mm 0.00 in0.0 mm
09:00 AM 30.6°F-0.8°C 13.7°F-10.2°C 49% 6.6 mph ENE10.6 kmh ENE 14.0 mph22.5 kmh 30.60 in1036.2 mb 0.00 in0.0 mm 0.00 in0.0 mm 0.00 in0.0 mm
09:05 AM 30.7°F-0.7°C 13.2°F-10.4°C 48% 5.2 mph ENE8.4 kmh ENE 14.0 mph22.5 kmh 30.60 in1036.2 mb 0.00 in0.0 mm 0.00 in0.0 mm 0.00 in0.0 mm
09:10 AM 30.9°F-0.6°C 13.4°F-10.3°C 48% 7.9 mph ENE12.7 kmh ENE 16.0 mph25.7 kmh 30.60 in1036.2 mb 0.00 in0.0 mm 0.00 in0.0 mm 0.00 in0.0 mm
09:15 AM 30.9°F-0.6°C 13.4°F-10.3°C 48% 7.5 mph ENE12.1 kmh ENE 16.0 mph25.7 kmh 30.60 in1036.2 mb 0.00 in0.0 mm 0.00 in0.0 mm 0.00 in0.0 mm
09:20 AM 31.1°F-0.5°C 13.6°F-10.2°C 48% 5.0 mph ENE8.0 kmh ENE 16.0 mph25.7 kmh 30.60 in1036.2 mb 0.00 in0.0 mm 0.00 in0.0 mm 0.00 in0.0 mm
09:25 AM 31.2°F-0.4°C 12.8°F-10.7°C 46% 9.3 mph ENE15.0 kmh ENE 16.0 mph25.7 kmh 30.59 in1035.9 mb 0.00 in0.0 mm 0.00 in0.0 mm 0.00 in0.0 mm
09:30 AM 31.3°F-0.4°C 12.3°F-10.9°C 45% 10.4 mph ENE16.7 kmh ENE 19.0 mph30.6 kmh 30.59 in1035.9 mb 0.00 in0.0 mm 0.00 in0.0 mm 0.00 in0.0 mm
09:35 AM 31.4°F-0.3°C 13.9°F-10.1°C 48% 5.2 mph NE8.4 kmh NE 19.0 mph30.6 kmh 30.60 in1036.2 mb 0.00 in0.0 mm 0.00 in0.0 mm 0.00 in0.0 mm
09:40 AM 31.2°F-0.4°C 13.7°F-10.2°C 48% 6.7 mph NE10.8 kmh NE 19.0 mph30.6 kmh 30.60 in1036.2 mb 0.00 in0.0 mm 0.00 in0.0 mm 0.00 in0.0 mm
09:45 AM 31.3°F-0.4°C 13.8°F-10.1°C 48% 4.0 mph ENE6.4 kmh ENE 18.0 mph29.0 kmh 30.60 in1036.2 mb 0.00 in0.0 mm 0.00 in0.0 mm 0.00 in0.0 mm
09:50 AM 31.2°F-0.4°C 13.7°F-10.2°C 48% 4.8 mph NE7.7 kmh NE 12.0 mph19.3 kmh 30.60 in1036.2 mb 0.00 in0.0 mm 0.00 in0.0 mm 0.00 in0.0 mm
09:55 AM 31.4°F-0.3°C 13.4°F-10.3°C 47% 5.9 mph ENE9.5 kmh ENE 12.0 mph19.3 kmh 30.61 in1036.6 mb 0.00 in0.0 mm 0.00 in0.0 mm 0.00 in0.0 mm
10:00 AM 31.4°F-0.3°C 13.9°F-10.1°C 48% 3.8 mph ENE6.1 kmh ENE 12.0 mph19.3 kmh 30.61 in1036.6 mb 0.00 in0.0 mm 0.00 in0.0 mm 0.00 in0.0 mm
10:05 AM 31.5°F-0.3°C 14.0°F-10.0°C 48% 4.1 mph NE6.6 kmh NE 12.0 mph19.3 kmh 30.61 in1036.6 mb 0.00 in0.0 mm 0.00 in0.0 mm 0.00 in0.0 mm
10:10 AM 31.7°F-0.2°C 14.1°F-9.9°C 48% 3.9 mph ENE6.3 kmh ENE 12.0 mph19.3 kmh 30.61 in1036.6 mb 0.00 in0.0 mm 0.00 in0.0 mm 0.00 in0.0 mm
10:15 AM 32.0°F0.0°C 14.4°F-9.8°C 48% 5.2 mph NE8.4 kmh NE 11.0 mph17.7 kmh 30.61 in1036.6 mb 0.00 in0.0 mm 0.00 in0.0 mm 0.00 in0.0 mm
10:20 AM 32.1°F0.1°C 13.5°F-10.3°C 46% 5.2 mph ENE8.4 kmh ENE 11.0 mph17.7 kmh 30.61 in1036.6 mb 0.00 in0.0 mm 0.00 in0.0 mm 0.00 in0.0 mm
10:25 AM 32.2°F0.1°C 13.6°F-10.2°C 46% 6.1 mph ENE9.8 kmh ENE 11.0 mph17.7 kmh 30.61 in1036.6 mb 0.00 in0.0 mm 0.00 in0.0 mm 0.00 in0.0 mm
10:30 AM 32.4°F0.2°C 13.8°F-10.1°C 46% 4.5 mph ENE7.2 kmh ENE 14.0 mph22.5 kmh 30.61 in1036.6 mb 0.00 in0.0 mm 0.00 in0.0 mm 0.00 in0.0 mm
10:35 AM 32.7°F0.4°C 13.7°F-10.2°C 45% 5.7 mph NE9.2 kmh NE 14.0 mph22.5 kmh 30.62 in1036.9 mb 0.00 in0.0 mm 0.00 in0.0 mm 0.00 in0.0 mm
10:40 AM 32.8°F0.4°C 13.6°F-10.2°C 45% 6.1 mph NE9.8 kmh NE 14.0 mph22.5 kmh 30.62 in1036.9 mb 0.00 in0.0 mm 0.00 in0.0 mm 0.00 in0.0 mm
10:45 AM 32.9°F0.5°C 13.7°F-10.2°C 45% 8.0 mph E12.9 kmh E 12.0 mph19.3 kmh 30.62 in1036.9 mb 0.00 in0.0 mm 0.00 in0.0 mm 0.00 in0.0 mm
10:50 AM 33.2°F0.7°C 14.5°F-9.7°C 46% 3.3 mph ENE5.3 kmh ENE 11.0 mph17.7 kmh 30.62 in1036.9 mb 0.00 in0.0 mm 0.00 in0.0 mm 0.00 in0.0 mm
10:55 AM 33.4°F0.8°C 14.7°F-9.6°C 46% 5.5 mph NE8.9 kmh NE 11.0 mph17.7 kmh 30.62 in1036.9 mb 0.00 in0.0 mm 0.00 in0.0 mm 0.00 in0.0 mm
11:00 AM 33.5°F0.8°C 14.9°F-9.5°C 46% 4.3 mph ENE6.9 kmh ENE 11.0 mph17.7 kmh 30.62 in1036.9 mb 0.00 in0.0 mm 0.00 in0.0 mm 0.00 in0.0 mm
11:05 AM 33.7°F0.9°C 15.0°F-9.4°C 46% 6.6 mph E10.6 kmh E 12.0 mph19.3 kmh 30.61 in1036.6 mb 0.00 in0.0 mm 0.00 in0.0 mm 0.00 in0.0 mm
11:10 AM 34.1°F1.2°C 15.9°F-8.9°C 47% 3.9 mph ENE6.3 kmh ENE 12.0 mph19.3 kmh 30.62 in1036.9 mb 0.00 in0.0 mm 0.00 in0.0 mm 0.00 in0.0 mm
11:14 AM 34.4°F1.3°C 15.6°F-9.1°C 46% 6.2 mph ENE10.0 kmh ENE 12.0 mph19.3 kmh 30.62 in1036.9 mb 0.00 in0.0 mm 0.00 in0.0 mm 0.00 in0.0 mm
11:19 AM 34.4°F1.3°C 15.6°F-9.1°C 46% 6.6 mph ENE10.6 kmh ENE 12.0 mph19.3 kmh 30.61 in1036.6 mb 0.00 in0.0 mm 0.00 in0.0 mm 0.00 in0.0 mm
11:24 AM 34.5°F1.4°C 15.8°F-9.0°C 46% 8.5 mph E13.7 kmh E 14.0 mph22.5 kmh 30.61 in1036.6 mb 0.00 in0.0 mm 0.00 in0.0 mm 0.00 in0.0 mm
11:29 AM 34.8°F1.6°C 16.0°F-8.9°C 46% 8.5 mph ENE13.7 kmh ENE 14.0 mph22.5 kmh 30.61 in1036.6 mb 0.00 in0.0 mm 0.00 in0.0 mm 0.00 in0.0 mm
11:34 AM 35.0°F1.7°C 16.2°F-8.8°C 46% 9.6 mph E15.4 kmh E 14.0 mph22.5 kmh 30.60 in1036.2 mb 0.00 in0.0 mm 0.00 in0.0 mm 0.00 in0.0 mm
11:39 AM 35.6°F2.0°C 16.7°F-8.5°C 46% 7.6 mph E12.2 kmh E 17.0 mph27.4 kmh 30.60 in1036.2 mb 0.00 in0.0 mm 0.00 in0.0 mm 0.00 in0.0 mm
11:44 AM 35.9°F2.2°C 17.0°F-8.3°C 46% 7.2 mph E11.6 kmh E 17.0 mph27.4 kmh 30.60 in1036.2 mb 0.00 in0.0 mm 0.00 in0.0 mm 0.00 in0.0 mm
11:49 AM 36.0°F2.2°C 17.1°F-8.3°C 46% 6.8 mph E10.9 kmh E 17.0 mph27.4 kmh 30.60 in1036.2 mb 0.00 in0.0 mm 0.00 in0.0 mm 0.00 in0.0 mm
11:54 AM 36.6°F2.6°C 18.2°F-7.7°C 47% 3.0 mph E4.8 kmh E 17.0 mph27.4 kmh 30.60 in1036.2 mb 0.00 in0.0 mm 0.00 in0.0 mm 0.00 in0.0 mm
11:59 AM 37.2°F2.9°C 18.7°F-7.4°C 47% 4.8 mph ENE7.7 kmh ENE 15.0 mph24.1 kmh 30.60 in1036.2 mb 0.00 in0.0 mm 0.00 in0.0 mm 0.00 in0.0 mm
12:04 PM 37.2°F2.9°C 18.2°F-7.7°C 46% 9.1 mph ENE14.6 kmh ENE 15.0 mph24.1 kmh 30.60 in1036.2 mb 0.00 in0.0 mm 0.00 in0.0 mm 0.00 in0.0 mm
12:09 PM 37.3°F2.9°C 18.9°F-7.3°C 47% 10.4 mph E16.7 kmh E 15.0 mph24.1 kmh 30.60 in1036.2 mb 0.00 in0.0 mm 0.00 in0.0 mm 0.00 in0.0 mm
12:14 PM 37.8°F3.2°C 19.8°F-6.8°C 48% 9.1 mph E14.6 kmh E 15.0 mph24.1 kmh 30.60 in1036.2 mb 0.00 in0.0 mm 0.00 in0.0 mm 0.00 in0.0 mm
12:19 PM 38.5°F3.6°C 20.4°F-6.4°C 48% 6.0 mph E9.7 kmh E 15.0 mph24.1 kmh 30.59 in1035.9 mb 0.00 in0.0 mm 0.00 in0.0 mm 0.00 in0.0 mm
12:24 PM 39.2°F4.0°C 21.1°F-6.1°C 48% 4.1 mph NE6.6 kmh NE 15.0 mph24.1 kmh 30.59 in1035.9 mb 0.00 in0.0 mm 0.00 in0.0 mm 0.00 in0.0 mm
12:29 PM 39.4°F4.1°C 20.8°F-6.2°C 47% 7.8 mph E12.6 kmh E 15.0 mph24.1 kmh 30.59 in1035.9 mb 0.00 in0.0 mm 0.00 in0.0 mm 0.00 in0.0 mm
12:34 PM 39.2°F4.0°C 21.1°F-6.1°C 48% 6.9 mph E11.1 kmh E 13.0 mph20.9 kmh 30.59 in1035.9 mb 0.00 in0.0 mm 0.00 in0.0 mm 0.00 in0.0 mm
12:39 PM 39.4°F4.1°C 21.7°F-5.7°C 49% 6.4 mph ENE10.3 kmh ENE 13.0 mph20.9 kmh 30.59 in1035.9 mb 0.00 in0.0 mm 0.00 in0.0 mm 0.00 in0.0 mm
12:44 PM 39.8°F4.3°C 22.2°F-5.4°C 49% 8.9 mph NE14.3 kmh NE 16.0 mph25.7 kmh 30.59 in1035.9 mb 0.00 in0.0 mm 0.00 in0.0 mm 0.00 in0.0 mm
12:49 PM 40.3°F4.6°C 22.6°F-5.2°C 49% 6.6 mph E10.6 kmh E 16.0 mph25.7 kmh 30.58 in1035.6 mb 0.00 in0.0 mm 0.00 in0.0 mm 0.00 in0.0 mm
12:54 PM 40.4°F4.7°C 22.7°F-5.2°C 49% 5.3 mph E8.5 kmh E 16.0 mph25.7 kmh 30.58 in1035.6 mb 0.00 in0.0 mm 0.00 in0.0 mm 0.00 in0.0 mm
12:59 PM 40.7°F4.8°C 23.4°F-4.8°C 50% 5.8 mph E9.3 kmh E 16.0 mph25.7 kmh 30.58 in1035.6 mb 0.00 in0.0 mm 0.00 in0.0 mm 0.00 in0.0 mm
01:04 PM 41.5°F5.3°C 24.7°F-4.1°C 51% 6.8 mph ENE10.9 kmh ENE 14.0 mph22.5 kmh 30.58 in1035.6 mb 0.00 in0.0 mm 0.00 in0.0 mm 0.00 in0.0 mm
01:09 PM 41.4°F5.2°C 24.6°F-4.1°C 51% 6.6 mph ENE10.6 kmh ENE 15.0 mph24.1 kmh 30.58 in1035.6 mb 0.00 in0.0 mm 0.00 in0.0 mm 0.00 in0.0 mm
01:15 PM 41.5°F5.3°C 24.7°F-4.1°C 51% 7.7 mph E12.4 kmh E 15.0 mph24.1 kmh 30.57 in1035.2 mb 0.00 in0.0 mm 0.00 in0.0 mm 0.00 in0.0 mm
01:20 PM 42.0°F5.6°C 25.6°F-3.6°C 52% 4.7 mph ENE7.6 kmh ENE 15.0 mph24.1 kmh 30.56 in1034.9 mb 0.00 in0.0 mm 0.00 in0.0 mm 0.00 in0.0 mm
01:25 PM 42.9°F6.1°C 26.5°F-3.1°C 52% 4.3 mph ENE6.9 kmh ENE 12.0 mph19.3 kmh 30.56 in1034.9 mb 0.00 in0.0 mm 0.00 in0.0 mm 0.00 in0.0 mm
01:30 PM 43.1°F6.2°C 26.6°F-3.0°C 52% 5.5 mph E8.9 kmh E 12.0 mph19.3 kmh 30.56 in1034.9 mb 0.00 in0.0 mm 0.00 in0.0 mm 0.00 in0.0 mm
01:35 PM 43.1°F6.2°C 26.2°F-3.2°C 51% 9.1 mph NE14.6 kmh NE 14.0 mph22.5 kmh 30.56 in1034.9 mb 0.00 in0.0 mm 0.00 in0.0 mm 0.00 in0.0 mm
01:40 PM 43.5°F6.4°C 27.5°F-2.5°C 53% 7.4 mph ENE11.9 kmh ENE 14.0 mph22.5 kmh 30.55 in1034.5 mb 0.00 in0.0 mm 0.00 in0.0 mm 0.00 in0.0 mm
01:45 PM 44.1°F6.7°C 27.6°F-2.4°C 52% 4.9 mph NE7.9 kmh NE 14.0 mph22.5 kmh 30.55 in1034.5 mb 0.00 in0.0 mm 0.00 in0.0 mm 0.00 in0.0 mm
01:50 PM 44.3°F6.8°C 27.8°F-2.3°C 52% 7.1 mph ENE11.4 kmh ENE 14.0 mph22.5 kmh 30.55 in1034.5 mb 0.00 in0.0 mm 0.00 in0.0 mm 0.00 in0.0 mm
01:55 PM 44.1°F6.7°C 27.6°F-2.4°C 52% 6.4 mph E10.3 kmh E 13.0 mph20.9 kmh 30.54 in1034.2 mb 0.00 in0.0 mm 0.00 in0.0 mm 0.00 in0.0 mm
02:00 PM 44.3°F6.8°C 27.8°F-2.3°C 52% 7.5 mph ENE12.1 kmh ENE 12.0 mph19.3 kmh 30.54 in1034.2 mb 0.00 in0.0 mm 0.00 in0.0 mm 0.00 in0.0 mm
02:05 PM 44.6°F7.0°C 28.5°F-1.9°C 53% 6.8 mph ENE10.9 kmh ENE 12.0 mph19.3 kmh 30.53 in1033.9 mb 0.00 in0.0 mm 0.00 in0.0 mm 0.00 in0.0 mm
02:10 PM 45.1°F7.3°C 28.5°F-1.9°C 52% 2.4 mph ENE3.9 kmh ENE 12.0 mph19.3 kmh 30.53 in1033.9 mb 0.00 in0.0 mm 0.00 in0.0 mm 0.00 in0.0 mm
02:15 PM 45.1°F7.3°C 28.5°F-1.9°C 52% 9.0 mph ENE14.5 kmh ENE 12.0 mph19.3 kmh 30.53 in1033.9 mb 0.00 in0.0 mm 0.00 in0.0 mm 0.00 in0.0 mm
02:20 PM 45.3°F7.4°C 28.7°F-1.8°C 52% 8.3 mph ENE13.4 kmh ENE 12.0 mph19.3 kmh 30.53 in1033.9 mb 0.00 in0.0 mm 0.00 in0.0 mm 0.00 in0.0 mm
02:25 PM 45.7°F7.6°C 29.1°F-1.6°C 52% 7.0 mph E11.3 kmh E 14.0 mph22.5 kmh 30.52 in1033.5 mb 0.00 in0.0 mm 0.00 in0.0 mm 0.00 in0.0 mm
02:30 PM 45.7°F7.6°C 29.1°F-1.6°C 52% 4.7 mph E7.6 kmh E 14.0 mph22.5 kmh 30.51 in1033.2 mb 0.00 in0.0 mm 0.00 in0.0 mm 0.00 in0.0 mm
02:35 PM 46.1°F7.8°C 29.4°F-1.4°C 52% 7.8 mph ENE12.6 kmh ENE 14.0 mph22.5 kmh 30.51 in1033.2 mb 0.00 in0.0 mm 0.00 in0.0 mm 0.00 in0.0 mm
02:40 PM 46.0°F7.8°C 29.8°F-1.2°C 53% 7.1 mph NE11.4 kmh NE 14.0 mph22.5 kmh 30.51 in1033.2 mb 0.00 in0.0 mm 0.00 in0.0 mm 0.00 in0.0 mm
02:45 PM 46.4°F8.0°C 30.2°F-1.0°C 53% 4.4 mph ENE7.1 kmh ENE 13.0 mph20.9 kmh 30.50 in1032.8 mb 0.00 in0.0 mm 0.00 in0.0 mm 0.00 in0.0 mm
02:50 PM 46.9°F8.3°C 30.7°F-0.7°C 53% 7.6 mph ENE12.2 kmh ENE 13.0 mph20.9 kmh 30.50 in1032.8 mb 0.00 in0.0 mm 0.00 in0.0 mm 0.00 in0.0 mm
02:55 PM 46.9°F8.3°C 30.6°F-0.8°C 53% 6.7 mph ENE10.8 kmh ENE 12.0 mph19.3 kmh 30.50 in1032.8 mb 0.00 in0.0 mm 0.00 in0.0 mm 0.00 in0.0 mm
03:00 PM 46.9°F8.3°C 30.7°F-0.7°C 53% 8.1 mph ENE13.0 kmh ENE 12.0 mph19.3 kmh 30.50 in1032.8 mb 0.00 in0.0 mm 0.00 in0.0 mm 0.00 in0.0 mm
03:05 PM 46.9°F8.3°C 30.7°F-0.7°C 53% 9.1 mph ENE14.6 kmh ENE 15.0 mph24.1 kmh 30.49 in1032.5 mb 0.00 in0.0 mm 0.00 in0.0 mm 0.00 in0.0 mm
03:10 PM 47.3°F8.5°C 31.5°F-0.3°C 54% 4.5 mph ENE7.2 kmh ENE 15.0 mph24.1 kmh 30.49 in1032.5 mb 0.00 in0.0 mm 0.00 in0.0 mm 0.00 in0.0 mm
03:15 PM 47.5°F8.6°C 31.2°F-0.4°C 53% 7.5 mph E12.1 kmh E 15.0 mph24.1 kmh 30.49 in1032.5 mb 0.00 in0.0 mm 0.00 in0.0 mm 0.00 in0.0 mm
03:20 PM 47.7°F8.7°C 31.9°F-0.1°C 54% 4.3 mph E6.9 kmh E 15.0 mph24.1 kmh 30.49 in1032.5 mb 0.00 in0.0 mm 0.00 in0.0 mm 0.00 in0.0 mm
03:25 PM 48.1°F8.9°C 31.8°F-0.1°C 53% 7.2 mph ENE11.6 kmh ENE 14.0 mph22.5 kmh 30.49 in1032.5 mb 0.00 in0.0 mm 0.00 in0.0 mm 0.00 in0.0 mm
03:30 PM 48.1°F8.9°C 31.8°F-0.1°C 53% 8.3 mph NE13.4 kmh NE 14.0 mph22.5 kmh 30.48 in1032.2 mb 0.00 in0.0 mm 0.00 in0.0 mm 0.00 in0.0 mm
03:35 PM 48.2°F9.0°C 32.4°F0.2°C 54% 5.1 mph ENE8.2 kmh ENE 13.0 mph20.9 kmh 30.48 in1032.2 mb 0.00 in0.0 mm 0.00 in0.0 mm 0.00 in0.0 mm
03:40 PM 48.7°F9.3°C 32.8°F0.4°C 54% 4.4 mph ENE7.1 kmh ENE 13.0 mph20.9 kmh 30.48 in1032.2 mb 0.00 in0.0 mm 0.00 in0.0 mm 0.00 in0.0 mm
03:45 PM 48.8°F9.3°C 32.9°F0.5°C 54% 8.3 mph E13.4 kmh E 13.0 mph20.9 kmh 30.48 in1032.2 mb 0.00 in0.0 mm 0.00 in0.0 mm 0.00 in0.0 mm
03:50 PM 49.1°F9.5°C 33.2°F0.7°C 54% 6.4 mph NE10.3 kmh NE 12.0 mph19.3 kmh 30.48 in1032.2 mb 0.00 in0.0 mm 0.00 in0.0 mm 0.00 in0.0 mm
03:55 PM 49.4°F9.7°C 33.5°F0.8°C 54% 7.4 mph ENE11.9 kmh ENE 12.0 mph19.3 kmh 30.47 in1031.8 mb 0.00 in0.0 mm 0.00 in0.0 mm 0.00 in0.0 mm
04:00 PM 49.8°F9.9°C 33.8°F1.0°C 54% 7.7 mph ENE12.4 kmh ENE 12.0 mph19.3 kmh 30.47 in1031.8 mb 0.00 in0.0 mm 0.00 in0.0 mm 0.00 in0.0 mm
04:05 PM 49.7°F9.8°C 34.2°F1.2°C 55% 2.7 mph E4.3 kmh E 12.0 mph19.3 kmh 30.47 in1031.8 mb 0.00 in0.0 mm 0.00 in0.0 mm 0.00 in0.0 mm
04:10 PM 49.6°F9.8°C 34.1°F1.2°C 55% 6.7 mph E10.8 kmh E 16.0 mph25.7 kmh 30.48 in1032.2 mb 0.00 in0.0 mm 0.00 in0.0 mm 0.00 in0.0 mm
04:14 PM 49.7°F9.8°C 34.7°F1.5°C 56% 4.9 mph E7.9 kmh E 16.0 mph25.7 kmh 30.48 in1032.2 mb 0.00 in0.0 mm 0.00 in0.0 mm 0.00 in0.0 mm
04:19 PM 49.7°F9.8°C 34.2°F1.2°C 55% 8.4 mph E13.5 kmh E 16.0 mph25.7 kmh 30.47 in1031.8 mb 0.00 in0.0 mm 0.00 in0.0 mm 0.00 in0.0 mm
04:24 PM 49.9°F9.9°C 34.4°F1.3°C 55% 5.9 mph E9.5 kmh E 16.0 mph25.7 kmh 30.47 in1031.8 mb 0.00 in0.0 mm 0.00 in0.0 mm 0.00 in0.0 mm
04:29 PM 50.1°F10.1°C 35.0°F1.7°C 56% 5.1 mph E8.2 kmh E 13.0 mph20.9 kmh 30.47 in1031.8 mb 0.00 in0.0 mm 0.00 in0.0 mm 0.00 in0.0 mm
04:34 PM 50.4°F10.2°C 35.3°F1.8°C 56% 6.5 mph ESE10.5 kmh ESE 13.0 mph20.9 kmh 30.47 in1031.8 mb 0.00 in0.0 mm 0.00 in0.0 mm 0.00 in0.0 mm
04:39 PM 50.7°F10.4°C 35.6°F2.0°C 56% 3.2 mph SE5.1 kmh SE 13.0 mph20.9 kmh 30.47 in1031.8 mb 0.00 in0.0 mm 0.00 in0.0 mm 0.00 in0.0 mm
04:44 PM 50.9°F10.5°C 35.8°F2.1°C 56% 6.2 mph E10.0 kmh E 13.0 mph20.9 kmh 30.47 in1031.8 mb 0.00 in0.0 mm 0.00 in0.0 mm 0.00 in0.0 mm
04:49 PM 50.8°F10.4°C 35.7°F2.1°C 56% 5.9 mph E9.5 kmh E 14.0 mph22.5 kmh 30.46 in1031.5 mb 0.00 in0.0 mm 0.00 in0.0 mm 0.00 in0.0 mm
04:54 PM 50.6°F10.3°C 35.5°F1.9°C 56% 4.8 mph ENE7.7 kmh ENE 14.0 mph22.5 kmh 30.46 in1031.5 mb 0.00 in0.0 mm 0.00 in0.0 mm 0.00 in0.0 mm
04:59 PM 50.7°F10.4°C 35.6°F2.0°C 56% 7.6 mph ENE12.2 kmh ENE 14.0 mph22.5 kmh 30.46 in1031.5 mb 0.00 in0.0 mm 0.00 in0.0 mm 0.00 in0.0 mm
05:04 PM 50.8°F10.4°C 35.7°F2.1°C 56% 2.1 mph E3.4 kmh E 14.0 mph22.5 kmh 30.46 in1031.5 mb 0.00 in0.0 mm 0.00 in0.0 mm 0.00 in0.0 mm
05:09 PM 50.9°F10.5°C 35.8°F2.1°C 56% 5.0 mph E8.0 kmh E 13.0 mph20.9 kmh 30.46 in1031.5 mb 0.00 in0.0 mm 0.00 in0.0 mm 0.00 in0.0 mm
05:14 PM 50.7°F10.4°C 35.6°F2.0°C 56% 6.2 mph E10.0 kmh E 13.0 mph20.9 kmh 30.46 in1031.5 mb 0.00 in0.0 mm 0.00 in0.0 mm 0.00 in0.0 mm
05:19 PM 50.7°F10.4°C 35.6°F2.0°C 56% 4.1 mph E6.6 kmh E 11.0 mph17.7 kmh 30.46 in1031.5 mb 0.00 in0.0 mm 0.00 in0.0 mm 0.00 in0.0 mm
05:24 PM 50.7°F10.4°C 35.6°F2.0°C 56% 6.3 mph ENE10.1 kmh ENE 13.0 mph20.9 kmh 30.46 in1031.5 mb 0.00 in0.0 mm 0.00 in0.0 mm 0.00 in0.0 mm
05:29 PM 50.5°F10.3°C 35.9°F2.2°C 57% 7.2 mph ENE11.6 kmh ENE 15.0 mph24.1 kmh 30.46 in1031.5 mb 0.00 in0.0 mm 0.00 in0.0 mm 0.00 in0.0 mm
05:34 PM 50.6°F10.3°C 35.9°F2.2°C 57% 7.4 mph E11.9 kmh E 15.0 mph24.1 kmh 30.45 in1031.2 mb 0.00 in0.0 mm 0.00 in0.0 mm 0.00 in0.0 mm
05:39 PM 50.6°F10.3°C 35.9°F2.2°C 57% 8.0 mph E12.9 kmh E 15.0 mph24.1 kmh 30.45 in1031.2 mb 0.00 in0.0 mm 0.00 in0.0 mm 0.00 in0.0 mm
05:44 PM 50.6°F10.3°C 36.0°F2.2°C 57% 5.9 mph E9.5 kmh E 15.0 mph24.1 kmh 30.45 in1031.2 mb 0.00 in0.0 mm 0.00 in0.0 mm 0.00 in0.0 mm
05:49 PM 50.6°F10.3°C 36.0°F2.2°C 57% 5.4 mph E8.7 kmh E 13.0 mph20.9 kmh 30.45 in1031.2 mb 0.00 in0.0 mm 0.00 in0.0 mm 0.00 in0.0 mm
05:54 PM 50.5°F10.3°C 36.3°F2.4°C 58% 6.5 mph E10.5 kmh E 13.0 mph20.9 kmh 30.45 in1031.2 mb 0.00 in0.0 mm 0.00 in0.0 mm 0.00 in0.0 mm
05:59 PM 50.5°F10.3°C 36.3°F2.4°C 58% 6.5 mph ENE10.5 kmh ENE 13.0 mph20.9 kmh 30.45 in1031.2 mb 0.00 in0.0 mm 0.00 in0.0 mm 0.00 in0.0 mm
06:04 PM 50.4°F10.2°C 36.3°F2.4°C 58% 3.2 mph E5.1 kmh E 13.0 mph20.9 kmh 30.46 in1031.5 mb 0.00 in0.0 mm 0.00 in0.0 mm 0.00 in0.0 mm
06:09 PM 50.4°F10.2°C 36.3°F2.4°C 58% 5.5 mph ENE8.9 kmh ENE 13.0 mph20.9 kmh 30.45 in1031.2 mb 0.00 in0.0 mm 0.00 in0.0 mm 0.00 in0.0 mm
06:14 PM 50.3°F10.2°C 36.2°F2.3°C 58% 6.5 mph E10.5 kmh E 13.0 mph20.9 kmh 30.45 in1031.2 mb 0.00 in0.0 mm 0.00 in0.0 mm 0.00 in0.0 mm
06:19 PM 50.2°F10.1°C 36.4°F2.4°C 59% 3.8 mph E6.1 kmh E 13.0 mph20.9 kmh 30.45 in1031.2 mb 0.00 in0.0 mm 0.00 in0.0 mm 0.00 in0.0 mm
06:24 PM 50.2°F10.1°C 36.5°F2.5°C 59% 2.8 mph E4.5 kmh E 13.0 mph20.9 kmh 30.45 in1031.2 mb 0.00 in0.0 mm 0.00 in0.0 mm 0.00 in0.0 mm
06:29 PM 50.2°F10.1°C 36.5°F2.5°C 59% 6.1 mph E9.8 kmh E 13.0 mph20.9 kmh 30.45 in1031.2 mb 0.00 in0.0 mm 0.00 in0.0 mm 0.00 in0.0 mm
06:34 PM 50.1°F10.1°C 36.4°F2.4°C 59% 6.2 mph E10.0 kmh E 11.0 mph17.7 kmh 30.45 in1031.2 mb 0.00 in0.0 mm 0.00 in0.0 mm 0.00 in0.0 mm
06:39 PM 50.1°F10.1°C 36.4°F2.4°C 59% 3.6 mph E5.8 kmh E 11.0 mph17.7 kmh 30.45 in1031.2 mb 0.00 in0.0 mm 0.00 in0.0 mm 0.00 in0.0 mm
06:44 PM 50.0°F10.0°C 36.3°F2.4°C 59% 4.8 mph E7.7 kmh E 11.0 mph17.7 kmh 30.45 in1031.2 mb 0.00 in0.0 mm 0.00 in0.0 mm 0.00 in0.0 mm
06:49 PM 50.0°F10.0°C 36.7°F2.6°C 60% 1.9 mph ENE3.1 kmh ENE 10.0 mph16.1 kmh 30.44 in1030.8 mb 0.00 in0.0 mm 0.00 in0.0 mm 0.00 in0.0 mm
06:54 PM 49.8°F9.9°C 36.6°F2.6°C 60% 3.5 mph ENE5.6 kmh ENE 10.0 mph16.1 kmh 30.44 in1030.8 mb 0.00 in0.0 mm 0.00 in0.0 mm 0.00 in0.0 mm
06:59 PM 49.7°F9.8°C 36.4°F2.4°C 60% 5.0 mph E8.0 kmh E 11.0 mph17.7 kmh 30.44 in1030.8 mb 0.00 in0.0 mm 0.00 in0.0 mm 0.00 in0.0 mm
07:04 PM 49.6°F9.8°C 36.8°F2.7°C 61% 2.9 mph E4.7 kmh E 11.0 mph17.7 kmh 30.44 in1030.8 mb 0.00 in0.0 mm 0.00 in0.0 mm 0.00 in0.0 mm
07:09 PM 49.5°F9.7°C 36.7°F2.6°C 61% 3.5 mph E5.6 kmh E 11.0 mph17.7 kmh 30.44 in1030.8 mb 0.00 in0.0 mm 0.00 in0.0 mm 0.00 in0.0 mm
07:14 PM 49.5°F9.7°C 36.7°F2.6°C 61% 4.0 mph E6.4 kmh E 11.0 mph17.7 kmh 30.44 in1030.8 mb 0.00 in0.0 mm 0.00 in0.0 mm 0.00 in0.0 mm
07:19 PM 49.4°F9.7°C 36.6°F2.6°C 61% 7.0 mph E11.3 kmh E 10.0 mph16.1 kmh 30.44 in1030.8 mb 0.00 in0.0 mm 0.00 in0.0 mm 0.00 in0.0 mm
07:24 PM 49.4°F9.7°C 36.6°F2.6°C 61% 3.1 mph E5.0 kmh E 10.0 mph16.1 kmh 30.45 in1031.2 mb 0.00 in0.0 mm 0.00 in0.0 mm 0.00 in0.0 mm
07:29 PM 49.3°F9.6°C 36.5°F2.5°C 61% 4.6 mph E7.4 kmh E 10.0 mph16.1 kmh 30.46 in1031.5 mb 0.00 in0.0 mm 0.00 in0.0 mm 0.00 in0.0 mm
07:34 PM 49.3°F9.6°C 36.5°F2.5°C 61% 2.2 mph ENE3.5 kmh ENE 10.0 mph16.1 kmh 30.46 in1031.5 mb 0.00 in0.0 mm 0.00 in0.0 mm 0.00 in0.0 mm
07:39 PM 49.3°F9.6°C 36.5°F2.5°C 61% 4.8 mph ENE7.7 kmh ENE 8.0 mph12.9 kmh 30.46 in1031.5 mb 0.00 in0.0 mm 0.00 in0.0 mm 0.00 in0.0 mm
07:44 PM 49.2°F9.6°C 36.7°F2.6°C 62% 4.1 mph NE6.6 kmh NE 8.0 mph12.9 kmh 30.45 in1031.2 mb 0.00 in0.0 mm 0.00 in0.0 mm 0.00 in0.0 mm
07:49 PM 49.1°F9.5°C 36.7°F2.6°C 62% 4.2 mph E6.8 kmh E 8.0 mph12.9 kmh 30.45 in1031.2 mb 0.00 in0.0 mm 0.00 in0.0 mm 0.00 in0.0 mm
07:54 PM 49.0°F9.4°C 36.9°F2.7°C 63% 4.9 mph ENE7.9 kmh ENE 10.0 mph16.1 kmh 30.45 in1031.2 mb 0.00 in0.0 mm 0.00 in0.0 mm 0.00 in0.0 mm
07:59 PM 48.8°F9.3°C 36.8°F2.7°C 63% 4.6 mph ENE7.4 kmh ENE 10.0 mph16.1 kmh 30.45 in1031.2 mb 0.00 in0.0 mm 0.00 in0.0 mm 0.00 in0.0 mm
08:04 PM 48.7°F9.3°C 36.8°F2.7°C 63% 5.4 mph ENE8.7 kmh ENE 11.0 mph17.7 kmh 30.45 in1031.2 mb 0.00 in0.0 mm 0.00 in0.0 mm 0.00 in0.0 mm
08:09 PM 48.6°F9.2°C 37.1°F2.8°C 64% 5.9 mph ENE9.5 kmh ENE 11.0 mph17.7 kmh 30.45 in1031.2 mb 0.00 in0.0 mm 0.00 in0.0 mm 0.00 in0.0 mm
08:14 PM 48.5°F9.2°C 36.9°F2.7°C 64% 6.2 mph ENE10.0 kmh ENE 11.0 mph17.7 kmh 30.45 in1031.2 mb 0.00 in0.0 mm 0.00 in0.0 mm 0.00 in0.0 mm
08:19 PM 48.5°F9.2°C 36.9°F2.7°C 64% 4.6 mph ENE7.4 kmh ENE 11.0 mph17.7 kmh 30.46 in1031.5 mb 0.00 in0.0 mm 0.00 in0.0 mm 0.00 in0.0 mm
08:24 PM 48.5°F9.2°C 36.9°F2.7°C 64% 5.9 mph ENE9.5 kmh ENE 11.0 mph17.7 kmh 30.45 in1031.2 mb 0.00 in0.0 mm 0.00 in0.0 mm 0.00 in0.0 mm
08:29 PM 48.4°F9.1°C 36.9°F2.7°C 64% 6.7 mph ENE10.8 kmh ENE 14.0 mph22.5 kmh 30.45 in1031.2 mb 0.00 in0.0 mm 0.00 in0.0 mm 0.00 in0.0 mm
08:34 PM 48.4°F9.1°C 36.9°F2.7°C 64% 7.2 mph ENE11.6 kmh ENE 14.0 mph22.5 kmh 30.45 in1031.2 mb 0.00 in0.0 mm 0.00 in0.0 mm 0.00 in0.0 mm
08:39 PM 48.4°F9.1°C 36.5°F2.5°C 63% 7.8 mph ENE12.6 kmh ENE 14.0 mph22.5 kmh 30.45 in1031.2 mb 0.00 in0.0 mm 0.00 in0.0 mm 0.00 in0.0 mm
08:44 PM 48.4°F9.1°C 36.9°F2.7°C 64% 5.9 mph ENE9.5 kmh ENE 14.0 mph22.5 kmh 30.45 in1031.2 mb 0.00 in0.0 mm 0.00 in0.0 mm 0.00 in0.0 mm
08:49 PM 48.4°F9.1°C 36.5°F2.5°C 63% 7.2 mph E11.6 kmh E 16.0 mph25.7 kmh 30.45 in1031.2 mb 0.00 in0.0 mm 0.00 in0.0 mm 0.00 in0.0 mm
08:54 PM 48.4°F9.1°C 36.4°F2.4°C 63% 8.8 mph E14.2 kmh E 16.0 mph25.7 kmh 30.45 in1031.2 mb 0.00 in0.0 mm 0.00 in0.0 mm 0.00 in0.0 mm
08:59 PM 48.5°F9.2°C 36.9°F2.7°C 64% 7.3 mph ENE11.7 kmh ENE 16.0 mph25.7 kmh 30.45 in1031.2 mb 0.00 in0.0 mm 0.00 in0.0 mm 0.00 in0.0 mm
09:04 PM 48.4°F9.1°C 36.9°F2.7°C 64% 7.4 mph E11.9 kmh E 17.0 mph27.4 kmh 30.45 in1031.2 mb 0.00 in0.0 mm 0.00 in0.0 mm 0.00 in0.0 mm
09:09 PM 48.4°F9.1°C 36.5°F2.5°C 63% 12.3 mph E19.8 kmh E 18.0 mph29.0 kmh 30.45 in1031.2 mb 0.00 in0.0 mm 0.00 in0.0 mm 0.00 in0.0 mm
09:13 PM 48.4°F9.1°C 36.9°F2.7°C 64% 7.1 mph ENE11.4 kmh ENE 18.0 mph29.0 kmh 30.45 in1031.2 mb 0.00 in0.0 mm 0.00 in0.0 mm 0.00 in0.0 mm
09:18 PM 48.2°F9.0°C 36.7°F2.6°C 64% 9.1 mph E14.6 kmh E 18.0 mph29.0 kmh 30.45 in1031.2 mb 0.00 in0.0 mm 0.00 in0.0 mm 0.00 in0.0 mm
09:23 PM 48.1°F8.9°C 36.6°F2.6°C 64% 9.7 mph E15.6 kmh E 18.0 mph29.0 kmh 30.44 in1030.8 mb 0.00 in0.0 mm 0.00 in0.0 mm 0.00 in0.0 mm
09:28 PM 48.0°F8.9°C 36.9°F2.7°C 65% 9.4 mph E15.1 kmh E 17.0 mph27.4 kmh 30.45 in1031.2 mb 0.00 in0.0 mm 0.00 in0.0 mm 0.00 in0.0 mm
09:33 PM 47.9°F8.8°C 36.8°F2.7°C 65% 9.2 mph E14.8 kmh E 15.0 mph24.1 kmh 30.45 in1031.2 mb 0.00 in0.0 mm 0.00 in0.0 mm 0.00 in0.0 mm
09:38 PM 47.8°F8.8°C 36.7°F2.6°C 65% 5.9 mph ENE9.5 kmh ENE 15.0 mph24.1 kmh 30.45 in1031.2 mb 0.00 in0.0 mm 0.00 in0.0 mm 0.00 in0.0 mm
09:43 PM 47.8°F8.8°C 36.7°F2.6°C 65% 4.9 mph ENE7.9 kmh ENE 15.0 mph24.1 kmh 30.45 in1031.2 mb 0.00 in0.0 mm 0.00 in0.0 mm 0.00 in0.0 mm
09:48 PM 47.8°F8.8°C 36.7°F2.6°C 65% 4.0 mph ENE6.4 kmh ENE 15.0 mph24.1 kmh 30.45 in1031.2 mb 0.00 in0.0 mm 0.00 in0.0 mm 0.00 in0.0 mm
09:53 PM 47.7°F8.7°C 36.9°F2.7°C 66% 3.9 mph ENE6.3 kmh ENE 15.0 mph24.1 kmh 30.45 in1031.2 mb 0.00 in0.0 mm 0.00 in0.0 mm 0.00 in0.0 mm
09:58 PM 47.7°F8.7°C 37.0°F2.8°C 66% 6.1 mph ENE9.8 kmh ENE 12.0 mph19.3 kmh 30.45 in1031.2 mb 0.00 in0.0 mm 0.00 in0.0 mm 0.00 in0.0 mm
10:03 PM 47.7°F8.7°C 37.0°F2.8°C 66% 6.6 mph ENE10.6 kmh ENE 13.0 mph20.9 kmh 30.45 in1031.2 mb 0.00 in0.0 mm 0.00 in0.0 mm 0.00 in0.0 mm
10:08 PM 47.6°F8.7°C 36.9°F2.7°C 66% 6.8 mph ENE10.9 kmh ENE 13.0 mph20.9 kmh 30.45 in1031.2 mb 0.00 in0.0 mm 0.00 in0.0 mm 0.00 in0.0 mm
10:13 PM 47.6°F8.7°C 36.9°F2.7°C 66% 5.7 mph E9.2 kmh E 14.0 mph22.5 kmh 30.45 in1031.2 mb 0.00 in0.0 mm 0.00 in0.0 mm 0.00 in0.0 mm
10:18 PM 47.6°F8.7°C 36.9°F2.7°C 66% 8.5 mph E13.7 kmh E 14.0 mph22.5 kmh 30.45 in1031.2 mb 0.00 in0.0 mm 0.00 in0.0 mm 0.00 in0.0 mm
10:23 PM 47.6°F8.7°C 36.9°F2.7°C 66% 8.3 mph E13.4 kmh E 14.0 mph22.5 kmh 30.45 in1031.2 mb 0.00 in0.0 mm 0.00 in0.0 mm 0.00 in0.0 mm
10:28 PM 47.6°F8.7°C 36.9°F2.7°C 66% 6.5 mph ENE10.5 kmh ENE 14.0 mph22.5 kmh 30.45 in1031.2 mb 0.00 in0.0 mm 0.00 in0.0 mm 0.00 in0.0 mm
10:33 PM 47.6°F8.7°C 37.3°F2.9°C 67% 5.3 mph ENE8.5 kmh ENE 17.0 mph27.4 kmh 30.45 in1031.2 mb 0.00 in0.0 mm 0.00 in0.0 mm 0.00 in0.0 mm
10:38 PM 47.6°F8.7°C 37.3°F2.9°C 67% 4.3 mph ENE6.9 kmh ENE 17.0 mph27.4 kmh 30.45 in1031.2 mb 0.00 in0.0 mm 0.00 in0.0 mm 0.00 in0.0 mm
10:43 PM 47.6°F8.7°C 37.3°F2.9°C 67% 6.5 mph ENE10.5 kmh ENE 17.0 mph27.4 kmh 30.45 in1031.2 mb 0.00 in0.0 mm 0.00 in0.0 mm 0.00 in0.0 mm
10:48 PM 47.6°F8.7°C 37.3°F2.9°C 67% 6.7 mph E10.8 kmh E 17.0 mph27.4 kmh 30.45 in1031.2 mb 0.00 in0.0 mm 0.00 in0.0 mm 0.00 in0.0 mm
10:53 PM 47.6°F8.7°C 37.3°F2.9°C 67% 6.1 mph ENE9.8 kmh ENE 14.0 mph22.5 kmh 30.45 in1031.2 mb 0.00 in0.0 mm 0.00 in0.0 mm 0.00 in0.0 mm
10:58 PM 47.5°F8.6°C 37.6°F3.1°C 68% 3.7 mph ENE6.0 kmh ENE 14.0 mph22.5 kmh 30.45 in1031.2 mb 0.00 in0.0 mm 0.00 in0.0 mm 0.00 in0.0 mm
11:03 PM 47.5°F8.6°C 37.5°F3.1°C 68% 5.9 mph ENE9.5 kmh ENE 14.0 mph22.5 kmh 30.45 in1031.2 mb 0.00 in0.0 mm 0.00 in0.0 mm 0.00 in0.0 mm
11:08 PM 47.5°F8.6°C 37.6°F3.1°C 68% 4.1 mph ENE6.6 kmh ENE 10.0 mph16.1 kmh 30.45 in1031.2 mb 0.00 in0.0 mm 0.00 in0.0 mm 0.00 in0.0 mm
11:13 PM 47.4°F8.6°C 37.5°F3.1°C 68% 4.7 mph ENE7.6 kmh ENE 9.0 mph14.5 kmh 30.45 in1031.2 mb 0.00 in0.0 mm 0.00 in0.0 mm 0.00 in0.0 mm
11:18 PM 47.4°F8.6°C 37.5°F3.1°C 68% 5.6 mph E9.0 kmh E 11.0 mph17.7 kmh 30.44 in1030.8 mb 0.00 in0.0 mm 0.00 in0.0 mm 0.00 in0.0 mm
11:23 PM 47.3°F8.5°C 37.4°F3.0°C 68% 5.5 mph E8.9 kmh E 13.0 mph20.9 kmh 30.44 in1030.8 mb 0.00 in0.0 mm 0.00 in0.0 mm 0.00 in0.0 mm
11:28 PM 47.3°F8.5°C 37.3°F2.9°C 68% 7.3 mph E11.7 kmh E 13.0 mph20.9 kmh 30.44 in1030.8 mb 0.00 in0.0 mm 0.00 in0.0 mm 0.00 in0.0 mm
11:33 PM 47.3°F8.5°C 37.7°F3.2°C 69% 7.9 mph E12.7 kmh E 13.0 mph20.9 kmh 30.43 in1030.5 mb 0.00 in0.0 mm 0.00 in0.0 mm 0.00 in0.0 mm
11:38 PM 47.3°F8.5°C 37.7°F3.2°C 69% 6.4 mph E10.3 kmh E 13.0 mph20.9 kmh 30.44 in1030.8 mb 0.00 in0.0 mm 0.00 in0.0 mm 0.00 in0.0 mm
11:43 PM 47.3°F8.5°C 38.1°F3.4°C 70% 5.7 mph ENE9.2 kmh ENE 13.0 mph20.9 kmh 30.44 in1030.8 mb 0.00 in0.0 mm 0.00 in0.0 mm 0.00 in0.0 mm
11:48 PM 47.3°F8.5°C 38.0°F3.3°C 70% 4.9 mph ENE7.9 kmh ENE 13.0 mph20.9 kmh 30.43 in1030.5 mb 0.00 in0.0 mm 0.00 in0.0 mm 0.00 in0.0 mm
11:53 PM 47.3°F8.5°C 38.1°F3.4°C 70% 4.9 mph ENE7.9 kmh ENE 13.0 mph20.9 kmh 30.44 in1030.8 mb 0.00 in0.0 mm 0.00 in0.0 mm 0.00 in0.0 mm
11:58 PM 47.4°F8.6°C 38.6°F3.7°C 71% 5.1 mph E8.2 kmh E 13.0 mph20.9 kmh 30.44 in1030.8 mb 0.00 in0.0 mm 0.00 in0.0 mm 0.00 in0.0 mm